Time;durP1;ratioP1;P1;durP2;ratioP2;P2;SDS_P1;SDS_P2;PMS_P1;PMS_P2;Temp;Humidity;BMP_temperature;BMP_pressure;BME280_temperature;BME280_humidity;BME280_pressure;Samples;Min_cycle;Max_cycle;Signal;HPM_P1;HPM_P2
2022/05/05 00:00:19;;;;;;;5.30;4.80;;;15.30;99.90;;;;;;1043586;28;20021;-67
2022/05/05 00:00:50;;;;;;;6.33;4.63;;;15.30;99.90;;;;;;1043138;28;20074;-66
2022/05/05 00:01:21;;;;;;;7.00;5.27;;;15.30;99.90;;;;;;1043174;28;20431;-67
2022/05/05 00:01:52;;;;;;;4.80;4.22;;;15.20;99.90;;;;;;1043108;28;20104;-66
2022/05/05 00:02:23;;;;;;;6.80;5.22;;;15.30;99.90;;;;;;1043280;28;20009;-68
2022/05/05 00:02:53;;;;;;;6.90;4.77;;;15.20;99.90;;;;;;1043236;28;20052;-66
2022/05/05 00:03:24;;;;;;;6.47;5.37;;;15.20;99.90;;;;;;1043537;28;20025;-65
2022/05/05 00:03:55;;;;;;;7.27;5.13;;;15.20;99.90;;;;;;1043075;28;20017;-66
2022/05/05 00:04:25;;;;;;;8.23;5.20;;;15.20;99.90;;;;;;1043107;28;20009;-66
2022/05/05 00:04:56;;;;;;;8.03;4.87;;;15.20;99.90;;;;;;1036525;28;20103;-66
2022/05/05 00:05:26;;;;;;;9.30;5.00;;;15.20;99.90;;;;;;1034958;28;20032;-67
2022/05/05 00:05:57;;;;;;;5.77;4.60;;;15.20;99.90;;;;;;1039131;28;20010;-66
2022/05/05 00:06:27;;;;;;;5.07;4.57;;;15.20;99.90;;;;;;1039227;28;20060;-66
2022/05/05 00:07:05;;;;;;;8.43;5.57;;;15.20;99.90;;;;;;1039147;28;20006;-66
2022/05/05 00:07:36;;;;;;;7.68;5.40;;;15.20;99.90;;;;;;1039278;28;20006;-65
2022/05/05 00:08:09;;;;;;;7.70;5.03;;;15.20;99.90;;;;;;1038122;28;20104;-65
2022/05/05 00:08:39;;;;;;;7.22;5.20;;;15.20;99.90;;;;;;1040155;28;20018;-67
2022/05/05 00:09:10;;;;;;;5.33;4.27;;;15.20;99.90;;;;;;1043369;28;20080;-66
2022/05/05 00:09:40;;;;;;;8.77;5.33;;;15.20;99.90;;;;;;1043000;28;20012;-66
2022/05/05 00:14:28;;;;;;;6.90;5.07;;;15.20;99.90;;;;;;1043819;28;20043;-66
2022/05/05 00:14:59;;;;;;;7.07;5.43;;;15.20;99.90;;;;;;1041920;28;20507;-66
2022/05/05 00:15:30;;;;;;;7.20;5.27;;;15.20;99.90;;;;;;1039456;28;20469;-65
2022/05/05 00:16:01;;;;;;;7.88;5.28;;;15.20;99.90;;;;;;1040845;28;20010;-66
2022/05/05 00:16:31;;;;;;;6.57;5.00;;;15.20;99.90;;;;;;1043559;28;20566;-66
2022/05/05 00:17:07;;;;;;;7.60;4.90;;;15.20;99.90;;;;;;1043399;28;20013;-67
2022/05/05 00:17:38;;;;;;;6.15;5.10;;;15.20;99.90;;;;;;1043431;28;20542;-67
2022/05/05 00:18:08;;;;;;;6.87;5.30;;;15.20;99.90;;;;;;1043100;28;20484;-66
2022/05/05 00:18:39;;;;;;;7.10;5.10;;;15.20;99.90;;;;;;1043116;28;20031;-67
2022/05/05 00:19:09;;;;;;;7.40;5.40;;;15.20;99.90;;;;;;1043211;28;20662;-66
2022/05/05 00:19:41;;;;;;;6.00;5.20;;;15.20;99.90;;;;;;1043554;28;20431;-66
2022/05/05 00:20:12;;;;;;;8.15;5.70;;;15.20;99.90;;;;;;1044527;28;20037;-67
2022/05/05 00:20:43;;;;;;;5.83;5.23;;;15.20;99.90;;;;;;1044260;28;20066;-67
2022/05/05 00:21:13;;;;;;;8.30;4.93;;;15.20;99.90;;;;;;1044515;28;20005;-66
2022/05/05 00:21:44;;;;;;;8.10;5.07;;;15.20;99.90;;;;;;1043880;28;20012;-66
2022/05/05 00:22:14;;;;;;;5.63;4.87;;;15.20;99.90;;;;;;1044124;28;20012;-67
2022/05/05 00:22:45;;;;;;;7.10;4.50;;;15.20;99.90;;;;;;1043967;28;20701;-68
2022/05/05 00:23:15;;;;;;;5.90;4.87;;;15.20;99.90;;;;;;1044240;28;20017;-67
2022/05/05 00:23:46;;;;;;;5.67;4.53;;;15.20;99.90;;;;;;1043761;28;20120;-67
2022/05/05 00:24:16;;;;;;;6.33;4.33;;;15.20;99.90;;;;;;1039899;28;20128;-67
2022/05/05 00:24:47;;;;;;;6.87;5.17;;;15.20;99.90;;;;;;1039931;28;20029;-67
2022/05/05 00:25:18;;;;;;;6.50;4.80;;;15.20;99.90;;;;;;1035849;28;20022;-67
2022/05/05 00:25:48;;;;;;;8.80;4.90;;;15.20;99.90;;;;;;1040128;28;20025;-66
2022/05/05 00:26:19;;;;;;;5.80;4.80;;;15.20;99.90;;;;;;1044049;28;20017;-68
2022/05/05 00:26:50;;;;;;;7.57;4.60;;;15.20;99.90;;;;;;1044072;28;20429;-67
2022/05/05 00:27:22;;;;;;;5.90;5.22;;;15.20;99.90;;;;;;1044298;28;20154;-67
2022/05/05 00:27:53;;;;;;;7.57;5.28;;;15.20;99.90;;;;;;1043969;28;20414;-66
2022/05/05 00:28:23;;;;;;;6.20;4.47;;;15.20;99.90;;;;;;1043888;28;20528;-66
2022/05/05 00:28:54;;;;;;;6.50;4.70;;;15.20;99.90;;;;;;1044210;28;20043;-67
2022/05/05 00:29:24;;;;;;;8.97;5.27;;;15.20;99.90;;;;;;1043917;28;20013;-68
2022/05/05 00:29:55;;;;;;;5.00;4.50;;;15.20;99.90;;;;;;1043904;28;20020;-66
2022/05/05 00:30:29;;;;;;;5.53;4.60;;;15.20;99.90;;;;;;1039660;28;20029;-66
2022/05/05 00:30:59;;;;;;;6.00;4.70;;;15.20;99.90;;;;;;1035778;28;20432;-67
2022/05/05 00:31:30;;;;;;;6.40;5.00;;;15.20;99.90;;;;;;1036327;28;20517;-66
2022/05/05 00:32:01;;;;;;;7.43;4.93;;;15.10;99.90;;;;;;1040372;28;20440;-67
2022/05/05 00:32:32;;;;;;;6.57;5.07;;;15.10;99.90;;;;;;1039999;28;20841;-68
2022/05/05 00:33:02;;;;;;;5.70;4.60;;;15.10;99.90;;;;;;1039791;28;20691;-67
2022/05/05 00:33:33;;;;;;;5.77;4.57;;;15.10;99.90;;;;;;1039892;28;20112;-67
2022/05/05 00:34:03;;;;;;;7.87;4.60;;;15.10;99.90;;;;;;1035880;28;20107;-67
2022/05/05 00:34:34;;;;;;;8.63;4.87;;;15.10;99.90;;;;;;1039860;28;20021;-67
2022/05/05 00:35:05;;;;;;;7.10;4.33;;;15.10;99.90;;;;;;1043553;28;20119;-67
2022/05/05 00:35:35;;;;;;;5.90;5.30;;;15.10;99.90;;;;;;1044065;28;20017;-66
2022/05/05 00:36:06;;;;;;;6.07;4.57;;;15.10;99.90;;;;;;1043915;28;20021;-66
2022/05/05 00:36:37;;;;;;;6.53;4.17;;;15.10;99.90;;;;;;1040128;28;20029;-68
2022/05/05 00:37:08;;;;;;;9.88;5.60;;;15.10;99.90;;;;;;1043893;28;20021;-65
2022/05/05 00:37:38;;;;;;;7.07;4.27;;;15.10;99.90;;;;;;1043873;28;20020;-66
2022/05/05 00:38:09;;;;;;;5.13;4.60;;;15.10;99.90;;;;;;1044333;28;20607;-65
2022/05/05 00:38:39;;;;;;;10.03;4.90;;;15.10;99.90;;;;;;1044152;28;20332;-66
2022/05/05 00:39:13;;;;;;;6.83;4.97;;;15.00;99.90;;;;;;1044370;28;20456;-65
2022/05/05 00:39:43;;;;;;;7.18;4.85;;;15.00;99.90;;;;;;1044203;28;20104;-67
2022/05/05 00:40:14;;;;;;;7.43;4.87;;;15.00;99.90;;;;;;1044363;28;20013;-65
2022/05/05 00:40:45;;;;;;;6.30;4.97;;;15.00;99.90;;;;;;1042758;28;20032;-66
2022/05/05 00:41:15;;;;;;;4.93;4.40;;;15.00;99.90;;;;;;1040250;28;20225;-66
2022/05/05 00:41:47;;;;;;;6.80;5.57;;;15.00;99.90;;;;;;1040126;28;20046;-66
2022/05/05 00:42:17;;;;;;;7.55;5.45;;;15.00;99.90;;;;;;1040052;28;20049;-66
2022/05/05 00:42:48;;;;;;;7.70;4.07;;;15.00;99.90;;;;;;1039731;28;20101;-66
2022/05/05 00:43:19;;;;;;;7.07;4.57;;;15.00;99.90;;;;;;1040006;28;20013;-66
2022/05/05 00:43:50;;;;;;;5.80;4.30;;;15.00;99.90;;;;;;1040171;28;20090;-66
2022/05/05 00:44:21;;;;;;;5.63;4.60;;;15.00;99.90;;;;;;1040151;28;20321;-66
2022/05/05 00:44:51;;;;;;;8.20;5.00;;;15.00;99.90;;;;;;1039768;28;20093;-68
2022/05/05 00:45:22;;;;;;;5.53;4.57;;;15.00;99.90;;;;;;1039855;28;20045;-66
2022/05/05 00:45:52;;;;;;;7.37;4.83;;;15.00;99.90;;;;;;1039810;28;20567;-66
2022/05/05 00:46:23;;;;;;;6.90;4.70;;;15.00;99.90;;;;;;1039757;28;20168;-67
2022/05/05 00:46:53;;;;;;;5.77;4.53;;;15.00;99.90;;;;;;1039981;28;20488;-67
2022/05/05 00:47:24;;;;;;;5.87;4.47;;;15.00;99.90;;;;;;1039839;28;20080;-67
2022/05/05 00:48:05;;;;;;;6.67;4.93;;;15.00;99.90;;;;;;1040221;28;20067;-68
2022/05/05 00:48:36;;;;;;;7.55;5.03;;;14.90;99.90;;;;;;1040143;28;20026;-67
2022/05/05 00:49:06;;;;;;;6.00;4.40;;;14.90;99.90;;;;;;1041877;28;20017;-67
2022/05/05 00:49:37;;;;;;;5.90;4.50;;;15.00;99.90;;;;;;1043654;28;20377;-68
2022/05/05 00:50:08;;;;;;;5.50;4.67;;;14.90;99.90;;;;;;1043823;28;20064;-67
2022/05/05 00:50:39;;;;;;;6.35;4.80;;;14.90;99.90;;;;;;1043582;28;20024;-68
2022/05/05 00:51:10;;;;;;;7.00;4.57;;;14.90;99.90;;;;;;1043944;28;20067;-67
2022/05/05 00:51:41;;;;;;;9.20;5.53;;;14.90;99.90;;;;;;1043716;28;20017;-68
2022/05/05 00:52:12;;;;;;;7.10;4.80;;;14.90;99.90;;;;;;1044001;28;20021;-67
2022/05/05 00:52:42;;;;;;;6.30;4.53;;;14.90;99.90;;;;;;1043928;28;20013;-67
2022/05/05 00:53:13;;;;;;;7.10;5.07;;;14.90;99.90;;;;;;1044307;28;20447;-67
2022/05/05 00:53:43;;;;;;;9.13;5.00;;;14.90;99.90;;;;;;1044038;28;20373;-67
2022/05/05 00:54:14;;;;;;;5.73;4.90;;;14.90;99.90;;;;;;1044024;28;20020;-67
2022/05/05 00:54:44;;;;;;;7.23;4.40;;;14.90;99.90;;;;;;1043894;28;20131;-67
2022/05/05 00:55:15;;;;;;;7.50;4.70;;;14.90;99.90;;;;;;1043989;28;20096;-68
2022/05/05 00:55:48;;;;;;;6.20;4.87;;;14.90;99.90;;;;;;1043500;28;20033;-67
2022/05/05 00:56:19;;;;;;;8.45;4.95;;;14.90;99.90;;;;;;1044017;28;20604;-67
2022/05/05 00:56:51;;;;;;;6.43;5.13;;;14.90;99.90;;;;;;1043710;28;20074;-68
2022/05/05 00:57:22;;;;;;;5.65;5.00;;;14.90;99.90;;;;;;1044068;28;20112;-66
2022/05/05 00:57:53;;;;;;;7.15;5.22;;;14.90;99.90;;;;;;1043971;28;20013;-67
2022/05/05 00:58:25;;;;;;;8.30;4.90;;;14.90;99.90;;;;;;1042260;28;20017;-67
2022/05/05 00:58:57;;;;;;;7.18;4.82;;;14.90;99.90;;;;;;1039602;28;20020;-67
2022/05/05 00:59:28;;;;;;;6.40;4.90;;;14.90;99.90;;;;;;1042872;28;20063;-67
2022/05/05 01:00:01;;;;;;;6.27;4.97;;;14.90;99.90;;;;;;1039619;28;20055;-67
2022/05/05 01:00:35;;;;;;;6.75;5.10;;;14.90;99.90;;;;;;1039790;28;20021;-69
2022/05/05 01:01:06;;;;;;;6.93;4.88;;;14.90;99.90;;;;;;1038516;28;20018;-67
2022/05/05 01:01:36;;;;;;;5.13;4.55;;;14.90;99.90;;;;;;1039972;28;20033;-67
2022/05/05 01:02:07;;;;;;;5.73;4.93;;;14.90;99.90;;;;;;1040145;28;20063;-67
2022/05/05 01:02:38;;;;;;;7.13;4.83;;;14.90;99.90;;;;;;1039895;28;20028;-68
2022/05/05 01:03:09;;;;;;;6.43;4.70;;;14.90;99.90;;;;;;1040192;28;20264;-65
2022/05/05 01:03:40;;;;;;;6.35;4.80;;;14.90;99.90;;;;;;1039964;28;20321;-68
2022/05/05 01:04:11;;;;;;;5.33;4.37;;;14.90;99.90;;;;;;1040102;28;20468;-65
2022/05/05 01:04:42;;;;;;;5.57;4.63;;;14.90;99.90;;;;;;1040118;28;20009;-66
2022/05/05 01:05:13;;;;;;;6.35;4.93;;;14.90;99.90;;;;;;1043041;28;20016;-66
2022/05/05 01:05:44;;;;;;;6.33;4.67;;;14.90;99.90;;;;;;1044105;28;20032;-65
2022/05/05 01:06:15;;;;;;;6.80;4.65;;;14.90;99.90;;;;;;1044181;28;20104;-66
2022/05/05 01:06:46;;;;;;;6.53;4.63;;;14.90;99.90;;;;;;1044140;28;20021;-65
2022/05/05 01:07:18;;;;;;;6.53;4.90;;;14.90;99.90;;;;;;1044132;28;20056;-65
2022/05/05 01:07:48;;;;;;;5.43;4.85;;;14.90;99.90;;;;;;1044166;28;20075;-66
2022/05/05 01:08:19;;;;;;;6.83;5.13;;;14.90;99.90;;;;;;1044179;28;20068;-66
2022/05/05 01:08:49;;;;;;;5.80;4.90;;;14.80;99.90;;;;;;1044193;28;20570;-66
2022/05/05 01:09:20;;;;;;;6.77;5.10;;;14.90;99.90;;;;;;1044070;28;20009;-66
2022/05/05 01:09:51;;;;;;;6.50;5.18;;;14.90;99.90;;;;;;1044175;28;20020;-66
2022/05/05 01:10:22;;;;;;;6.60;4.90;;;14.90;99.90;;;;;;1044247;28;20009;-66
2022/05/05 01:10:53;;;;;;;6.95;4.68;;;14.80;99.90;;;;;;1044061;28;20096;-65
2022/05/05 01:11:23;;;;;;;6.73;4.43;;;14.90;99.90;;;;;;1044267;28;20020;-67
2022/05/05 01:11:55;;;;;;;5.70;4.77;;;14.80;99.90;;;;;;1044112;28;20476;-67
2022/05/05 01:12:29;;;;;;;6.78;5.03;;;14.80;99.90;;;;;;1044217;28;20021;-67
2022/05/05 01:13:01;;;;;;;7.95;5.47;;;14.80;99.90;;;;;;1043761;28;20541;-67
2022/05/05 01:13:32;;;;;;;6.07;4.90;;;14.80;99.90;;;;;;1043792;28;20052;-68
2022/05/05 01:14:03;;;;;;;5.47;4.80;;;14.80;99.90;;;;;;1043917;28;20035;-66
2022/05/05 01:14:34;;;;;;;6.00;5.32;;;14.80;99.90;;;;;;1039513;28;20502;-68
2022/05/05 01:15:05;;;;;;;6.38;5.10;;;14.80;99.90;;;;;;1041416;28;20052;-67
2022/05/05 01:15:36;;;;;;;5.85;4.05;;;14.80;99.90;;;;;;1039669;28;20017;-67
2022/05/05 01:16:08;;;;;;;6.03;4.90;;;14.80;99.90;;;;;;1041987;28;20010;-66
2022/05/05 01:16:40;;;;;;;7.78;5.22;;;14.80;99.90;;;;;;1044031;28;20566;-67
2022/05/05 01:17:11;;;;;;;5.43;4.68;;;14.80;99.90;;;;;;1043852;28;20159;-66
2022/05/05 01:17:42;;;;;;;8.93;4.87;;;14.80;99.90;;;;;;1043767;28;20059;-67
2022/05/05 01:18:12;;;;;;;5.30;4.73;;;14.80;99.90;;;;;;1041300;28;20021;-66
2022/05/05 01:18:43;;;;;;;6.10;5.37;;;14.80;99.90;;;;;;1039755;28;20282;-66
2022/05/05 01:19:13;;;;;;;8.33;5.07;;;14.80;99.90;;;;;;1040020;28;20021;-67
2022/05/05 01:19:44;;;;;;;5.37;4.67;;;14.70;99.90;;;;;;1040041;28;20010;-66
2022/05/05 01:20:17;;;;;;;7.13;4.57;;;14.70;99.90;;;;;;1040079;28;20342;-67
2022/05/05 01:20:50;;;;;;;6.22;5.10;;;14.70;99.90;;;;;;1040037;28;20010;-67
2022/05/05 01:21:20;;;;;;;7.57;5.07;;;14.70;99.90;;;;;;1039898;28;20021;-67
2022/05/05 01:21:52;;;;;;;10.10;5.63;;;14.70;99.90;;;;;;1039891;28;20017;-66
2022/05/05 01:22:26;;;;;;;9.48;6.03;;;14.70;99.90;;;;;;1039637;28;20021;-67
2022/05/05 01:22:56;;;;;;;6.22;5.57;;;14.70;99.90;;;;;;1039756;28;20084;-67
2022/05/05 01:23:27;;;;;;;8.17;5.13;;;14.70;99.90;;;;;;1039601;28;20567;-68
2022/05/05 01:23:57;;;;;;;9.40;5.20;;;14.70;99.90;;;;;;1039582;28;20480;-67
2022/05/05 01:28:43;;;;;;;7.13;5.15;;;14.60;99.90;;;;;;1040059;28;20121;-67
2022/05/05 01:29:15;;;;;;;7.35;5.25;;;14.70;99.90;;;;;;1040061;28;20066;-66
2022/05/05 01:29:46;;;;;;;6.55;5.45;;;14.70;99.90;;;;;;1039793;28;20502;-66
2022/05/05 01:30:16;;;;;;;6.00;4.77;;;14.70;99.90;;;;;;1040099;28;20376;-67
2022/05/05 01:30:50;;;;;;;7.40;5.17;;;14.70;99.90;;;;;;1040070;28;20018;-67
2022/05/05 01:31:21;;;;;;;6.75;6.03;;;14.70;99.90;;;;;;1039173;28;20423;-66
2022/05/05 01:31:52;;;;;;;6.83;5.00;;;14.70;99.90;;;;;;1039917;28;20376;-66
2022/05/05 01:32:29;;;;;;;6.30;5.20;;;14.70;99.90;;;;;;1040056;28;20009;-66
2022/05/05 01:32:59;;;;;;;5.88;5.22;;;14.70;99.90;;;;;;1039494;28;20198;-67
2022/05/05 01:33:33;;;;;;;6.80;5.17;;;14.70;99.90;;;;;;1035600;28;20041;-67
2022/05/05 01:34:06;;;;;;;6.47;5.60;;;14.70;99.90;;;;;;1039440;28;20088;-66
2022/05/05 01:34:37;;;;;;;5.15;4.63;;;14.70;99.90;;;;;;1040457;28;20016;-69
2022/05/05 01:35:07;;;;;;;6.17;4.90;;;14.70;99.90;;;;;;1044059;28;20017;-65
2022/05/05 01:35:39;;;;;;;7.20;4.67;;;14.70;99.90;;;;;;1043759;28;20460;-67
2022/05/05 01:36:09;;;;;;;6.45;5.15;;;14.70;99.90;;;;;;1044371;28;20012;-67
2022/05/05 01:36:40;;;;;;;7.37;4.70;;;14.70;99.90;;;;;;1043922;28;20041;-67
2022/05/05 01:37:10;;;;;;;5.70;4.67;;;14.70;99.90;;;;;;1044113;28;20563;-67
2022/05/05 01:37:41;;;;;;;6.17;4.87;;;14.70;99.90;;;;;;1043859;28;20494;-66
2022/05/05 01:38:13;;;;;;;6.53;5.27;;;14.70;99.90;;;;;;1044247;28;20534;-68
2022/05/05 01:38:44;;;;;;;6.45;4.63;;;14.70;99.90;;;;;;1043936;28;20045;-67
2022/05/05 01:39:15;;;;;;;7.30;4.87;;;14.70;99.90;;;;;;1044225;28;20014;-68
2022/05/05 01:39:45;;;;;;;5.97;5.13;;;14.60;99.90;;;;;;1043917;28;20025;-68
2022/05/05 01:40:16;;;;;;;7.53;5.23;;;14.70;99.90;;;;;;1044088;28;20021;-67
2022/05/05 01:40:47;;;;;;;7.47;5.00;;;14.70;99.90;;;;;;1044081;28;20079;-68
2022/05/05 01:41:18;;;;;;;6.00;4.43;;;14.60;99.90;;;;;;1043561;28;20017;-67
2022/05/05 01:41:49;;;;;;;7.55;5.18;;;14.60;99.90;;;;;;1043648;28;20013;-68
2022/05/05 01:42:19;;;;;;;6.33;4.77;;;14.60;99.90;;;;;;1043664;28;20006;-68
2022/05/05 01:42:51;;;;;;;5.73;4.67;;;14.60;99.90;;;;;;1039359;28;20565;-67
2022/05/05 01:43:21;;;;;;;6.40;5.47;;;14.60;99.90;;;;;;1039345;28;20014;-66
2022/05/05 01:43:52;;;;;;;6.53;4.50;;;14.60;99.90;;;;;;1039037;28;20031;-66
2022/05/05 01:44:23;;;;;;;9.27;5.73;;;14.60;99.90;;;;;;1035761;28;20606;-68
2022/05/05 01:44:53;;;;;;;7.57;4.93;;;14.60;99.90;;;;;;1039599;28;20029;-68
2022/05/05 01:45:24;;;;;;;6.93;5.13;;;14.60;99.90;;;;;;1039862;28;20631;-67
2022/05/05 01:45:54;;;;;;;6.37;4.60;;;14.60;99.90;;;;;;1039856;28;20488;-67
2022/05/05 01:46:25;;;;;;;6.07;5.33;;;14.60;99.90;;;;;;1043518;28;20103;-66
2022/05/05 01:46:55;;;;;;;5.67;4.97;;;14.60;99.90;;;;;;1039509;28;20401;-67
2022/05/05 01:47:26;;;;;;;6.37;4.73;;;14.60;99.90;;;;;;1039529;28;20535;-70
2022/05/05 01:47:56;;;;;;;6.40;5.00;;;14.60;99.90;;;;;;1039505;28;20025;-68
2022/05/05 01:48:28;;;;;;;5.70;4.63;;;14.60;99.90;;;;;;1039823;28;20404;-66
2022/05/05 01:48:58;;;;;;;7.75;5.53;;;14.50;99.90;;;;;;1043724;28;20017;-66
2022/05/05 01:49:29;;;;;;;7.10;5.30;;;14.50;99.90;;;;;;1043958;28;20013;-66
2022/05/05 01:50:00;;;;;;;6.77;4.90;;;14.50;99.90;;;;;;1041770;28;20025;-67
2022/05/05 01:50:31;;;;;;;6.82;4.88;;;14.50;99.90;;;;;;1043719;28;20036;-68
2022/05/05 01:51:03;;;;;;;6.60;5.13;;;14.50;99.90;;;;;;1043600;28;20024;-67
2022/05/05 01:51:33;;;;;;;6.05;4.97;;;14.50;99.90;;;;;;1040053;28;20120;-67
2022/05/05 01:52:10;;;;;;;6.47;4.83;;;14.50;99.90;;;;;;1043641;28;20074;-69
2022/05/05 01:52:41;;;;;;;6.00;4.90;;;14.50;99.90;;;;;;1043531;28;20017;-66
2022/05/05 01:53:11;;;;;;;8.63;4.90;;;14.50;99.90;;;;;;1043894;28;20017;-68
2022/05/05 01:53:42;;;;;;;6.60;5.13;;;14.50;99.90;;;;;;1043695;28;20021;-66
2022/05/05 01:54:12;;;;;;;5.43;4.67;;;14.50;99.90;;;;;;1044010;28;20024;-67
2022/05/05 01:54:43;;;;;;;5.63;5.03;;;14.50;99.90;;;;;;1043727;28;20021;-67
2022/05/05 01:55:13;;;;;;;6.73;4.73;;;14.50;99.90;;;;;;1043891;28;20021;-67
2022/05/05 01:55:44;;;;;;;6.43;5.03;;;14.50;99.90;;;;;;1043670;28;20033;-68
2022/05/05 01:56:14;;;;;;;7.23;5.30;;;14.50;99.90;;;;;;1043878;28;20029;-67
2022/05/05 01:56:45;;;;;;;6.07;4.83;;;14.50;99.90;;;;;;1043336;28;20032;-67
2022/05/05 01:57:16;;;;;;;7.53;5.37;;;14.50;99.90;;;;;;1042635;28;20098;-70
2022/05/05 01:57:46;;;;;;;8.67;5.13;;;14.50;99.90;;;;;;1039271;28;20102;-67
2022/05/05 01:58:17;;;;;;;7.53;5.00;;;14.50;99.90;;;;;;1039612;28;20118;-68
2022/05/05 01:58:48;;;;;;;6.03;4.37;;;14.50;99.90;;;;;;1039784;28;20029;-67
2022/05/05 01:59:18;;;;;;;6.83;4.90;;;14.50;99.90;;;;;;1040071;28;20025;-67
2022/05/05 01:59:49;;;;;;;6.80;5.33;;;14.50;99.90;;;;;;1039453;28;20369;-70
2022/05/05 02:00:20;;;;;;;5.27;4.60;;;14.50;99.90;;;;;;1039703;28;20018;-67
2022/05/05 02:00:50;;;;;;;6.20;4.90;;;14.50;99.90;;;;;;1039490;28;20033;-68
2022/05/05 02:01:21;;;;;;;6.33;5.57;;;14.40;99.90;;;;;;1041495;28;20076;-67
2022/05/05 02:01:52;;;;;;;6.03;5.10;;;14.40;99.90;;;;;;1044040;28;20151;-68
2022/05/05 02:02:22;;;;;;;7.03;5.20;;;14.40;99.90;;;;;;1044133;28;20422;-67
2022/05/05 02:02:53;;;;;;;6.37;5.10;;;14.40;99.90;;;;;;1043695;28;20516;-66
2022/05/05 02:03:23;;;;;;;7.77;5.30;;;14.40;99.90;;;;;;1043960;28;20039;-67
2022/05/05 02:03:54;;;;;;;7.73;4.83;;;14.40;99.90;;;;;;1043433;28;20811;-67
2022/05/05 02:04:25;;;;;;;6.27;4.80;;;14.40;99.90;;;;;;1043612;28;20655;-67
2022/05/05 02:04:55;;;;;;;7.77;4.93;;;14.40;99.90;;;;;;1043543;28;20013;-67
2022/05/05 02:05:26;;;;;;;5.17;4.57;;;14.40;99.90;;;;;;1043697;28;20499;-66
2022/05/05 02:05:57;;;;;;;6.25;4.60;;;14.40;99.90;;;;;;1043700;28;20021;-68
2022/05/05 02:06:27;;;;;;;6.20;5.03;;;14.40;99.90;;;;;;1043990;28;20052;-66
2022/05/05 02:06:58;;;;;;;6.00;5.13;;;14.40;99.90;;;;;;1043960;28;20028;-67
2022/05/05 02:07:28;;;;;;;5.40;4.90;;;14.40;99.90;;;;;;1043470;28;20053;-68
2022/05/05 02:07:59;;;;;;;7.03;5.03;;;14.40;99.90;;;;;;1043549;28;20064;-68
2022/05/05 02:08:29;;;;;;;6.60;5.50;;;14.40;99.90;;;;;;1043734;28;20071;-67
2022/05/05 02:09:00;;;;;;;7.30;4.87;;;14.40;99.90;;;;;;1043488;28;20017;-68
2022/05/05 02:09:30;;;;;;;7.13;5.27;;;14.40;99.90;;;;;;1043674;28;20025;-69
2022/05/05 02:10:06;;;;;;;9.93;5.90;;;14.40;99.90;;;;;;1043872;28;20123;-66
2022/05/05 02:10:37;;;;;;;7.07;5.32;;;14.40;99.90;;;;;;1043642;28;20028;-66
2022/05/05 02:11:07;;;;;;;6.90;4.68;;;14.40;99.90;;;;;;1043577;28;20036;-67
2022/05/05 02:11:41;;;;;;;7.03;5.00;;;14.40;99.90;;;;;;1043444;28;20171;-68
2022/05/05 02:12:12;;;;;;;7.20;4.82;;;14.30;99.90;;;;;;1043848;28;20025;-66
2022/05/05 02:12:44;;;;;;;7.47;4.97;;;14.30;99.90;;;;;;1043501;28;20017;-66
2022/05/05 02:13:15;;;;;;;7.90;4.53;;;14.30;99.90;;;;;;1043774;28;20017;-67
2022/05/05 02:13:45;;;;;;;6.43;4.77;;;14.30;99.90;;;;;;1043432;28;20021;-66
2022/05/05 02:14:16;;;;;;;6.37;4.73;;;14.30;99.90;;;;;;1044028;28;20049;-67
2022/05/05 02:14:47;;;;;;;6.57;4.67;;;14.30;99.90;;;;;;1043851;28;20013;-66
2022/05/05 02:15:17;;;;;;;6.27;5.20;;;14.30;99.90;;;;;;1044076;28;20278;-66
2022/05/05 02:15:48;;;;;;;7.00;4.63;;;14.30;99.90;;;;;;1043729;28;20028;-66
2022/05/05 02:16:18;;;;;;;5.70;5.10;;;14.30;99.90;;;;;;1040525;28;20022;-67
2022/05/05 02:16:50;;;;;;;6.20;4.60;;;14.30;99.90;;;;;;1039876;28;20028;-69
2022/05/05 02:17:20;;;;;;;6.35;5.05;;;14.30;99.90;;;;;;1039422;28;20025;-66
2022/05/05 02:17:51;;;;;;;6.27;4.63;;;14.30;99.90;;;;;;1039319;28;20022;-66
2022/05/05 02:18:21;;;;;;;7.17;5.17;;;14.30;99.90;;;;;;1039597;28;20480;-68
2022/05/05 02:18:52;;;;;;;5.73;5.13;;;14.30;99.90;;;;;;1039414;28;20520;-67
2022/05/05 02:19:23;;;;;;;8.17;5.27;;;14.30;99.90;;;;;;1039629;28;20014;-67
2022/05/05 02:19:53;;;;;;;6.57;5.10;;;14.30;99.90;;;;;;1039322;28;20017;-67
2022/05/05 02:20:24;;;;;;;6.90;4.90;;;14.30;99.90;;;;;;1040028;28;20010;-66
2022/05/05 02:20:54;;;;;;;5.20;4.70;;;14.30;99.90;;;;;;1039265;28;20017;-66
2022/05/05 02:21:25;;;;;;;7.97;4.87;;;14.30;99.90;;;;;;1039449;28;20099;-68
2022/05/05 02:21:55;;;;;;;7.33;5.13;;;14.30;99.90;;;;;;1039315;28;20450;-67
2022/05/05 02:22:27;;;;;;;6.87;5.20;;;14.30;99.90;;;;;;1039648;28;20643;-68
2022/05/05 02:22:57;;;;;;;6.50;5.55;;;14.30;99.90;;;;;;1039099;28;20021;-68
2022/05/05 02:23:28;;;;;;;6.87;5.10;;;14.30;99.90;;;;;;1040794;28;20092;-68
2022/05/05 02:23:58;;;;;;;5.50;4.40;;;14.30;99.90;;;;;;1043316;28;20021;-68
2022/05/05 02:24:29;;;;;;;5.10;4.60;;;14.30;99.90;;;;;;1043841;28;20060;-67
2022/05/05 02:25:00;;;;;;;5.80;4.60;;;14.30;99.90;;;;;;1043826;28;20104;-68
2022/05/05 02:25:31;;;;;;;7.70;5.25;;;14.30;99.90;;;;;;1044018;28;20079;-69
2022/05/05 02:26:02;;;;;;;5.00;4.22;;;14.30;99.90;;;;;;1043471;28;20376;-67
2022/05/05 02:26:33;;;;;;;6.15;4.82;;;14.30;99.90;;;;;;1043673;28;20028;-67
2022/05/05 02:27:04;;;;;;;5.23;4.70;;;14.30;99.90;;;;;;1039239;28;20021;-67
2022/05/05 02:27:52;;;;;;;5.40;4.38;;;14.30;99.90;;;;;;1039858;28;20006;-67
2022/05/05 02:28:22;;;;;;;7.30;4.88;;;14.30;99.90;;;;;;1043531;28;20095;-68
2022/05/05 02:28:53;;;;;;;5.97;5.10;;;14.30;99.90;;;;;;1043870;28;20066;-67
2022/05/05 02:29:23;;;;;;;5.57;4.67;;;14.30;99.90;;;;;;1043869;28;20013;-68
2022/05/05 02:29:54;;;;;;;5.37;4.80;;;14.30;99.90;;;;;;1043298;28;20108;-68
2022/05/05 02:30:27;;;;;;;8.03;4.93;;;14.30;99.90;;;;;;1043452;28;20024;-67
2022/05/05 02:30:57;;;;;;;7.40;4.85;;;14.30;99.90;;;;;;1043285;28;20102;-68
2022/05/05 02:31:28;;;;;;;6.20;4.37;;;14.30;99.90;;;;;;1043548;28;20062;-67
2022/05/05 02:31:58;;;;;;;6.10;4.50;;;14.20;99.90;;;;;;1039282;28;20025;-67
2022/05/05 02:32:29;;;;;;;6.87;4.70;;;14.20;99.90;;;;;;1035444;28;20021;-66
2022/05/05 02:32:59;;;;;;;5.50;4.57;;;14.20;99.90;;;;;;1039376;28;20088;-66
2022/05/05 02:33:30;;;;;;;6.30;5.23;;;14.20;99.90;;;;;;1035968;28;20014;-67
2022/05/05 02:34:01;;;;;;;5.30;4.67;;;14.20;99.90;;;;;;1039329;28;20014;-67
2022/05/05 02:34:32;;;;;;;5.07;4.53;;;14.20;99.90;;;;;;1039694;28;20064;-68
2022/05/05 02:35:02;;;;;;;6.87;4.83;;;14.20;99.90;;;;;;1039759;28;20049;-68
2022/05/05 02:35:33;;;;;;;6.20;4.73;;;14.20;99.90;;;;;;1039769;28;20018;-68
2022/05/05 02:38:43;;;;;;;5.40;4.90;;;14.20;99.90;;;;;;1044048;28;20024;-69
2022/05/05 02:39:14;;;;;;;6.28;4.65;;;14.20;99.90;;;;;;1044063;28;20029;-67
2022/05/05 02:39:44;;;;;;;6.00;4.63;;;14.20;99.90;;;;;;1043714;28;20095;-67
2022/05/05 02:40:15;;;;;;;6.03;4.60;;;14.10;99.90;;;;;;1043915;28;20017;-67
2022/05/05 02:40:45;;;;;;;5.47;4.73;;;14.20;99.90;;;;;;1043845;28;20106;-68
2022/05/05 02:41:16;;;;;;;6.00;4.90;;;14.10;99.90;;;;;;1043947;28;20013;-67
2022/05/05 02:41:47;;;;;;;7.40;5.17;;;14.10;99.90;;;;;;1043677;28;20487;-67
2022/05/05 02:42:17;;;;;;;7.57;5.00;;;14.10;99.90;;;;;;1042947;28;20674;-67
2022/05/05 02:42:48;;;;;;;6.90;5.30;;;14.10;99.90;;;;;;1039102;28;20495;-67
2022/05/05 02:43:18;;;;;;;6.37;5.00;;;14.10;99.90;;;;;;1038672;28;20496;-67
2022/05/05 02:43:49;;;;;;;5.23;4.70;;;14.10;99.90;;;;;;1039305;28;20025;-68
2022/05/05 02:44:19;;;;;;;6.13;5.07;;;14.10;99.90;;;;;;1039475;28;20018;-68
2022/05/05 02:44:50;;;;;;;5.70;4.37;;;14.10;99.90;;;;;;1039283;28;20092;-68
2022/05/05 02:45:21;;;;;;;5.50;4.97;;;14.10;99.90;;;;;;1039710;28;20017;-68
2022/05/05 02:45:51;;;;;;;6.63;5.20;;;14.10;99.90;;;;;;1039637;28;20480;-67
2022/05/05 02:46:22;;;;;;;5.50;4.40;;;14.10;99.90;;;;;;1039196;28;20017;-67
2022/05/05 02:46:52;;;;;;;5.20;4.70;;;14.10;99.90;;;;;;1039314;28;20567;-67
2022/05/05 02:47:23;;;;;;;6.17;5.03;;;14.10;99.90;;;;;;1039350;28;20536;-68
2022/05/05 02:47:53;;;;;;;7.50;4.77;;;14.10;99.90;;;;;;1039256;28;20014;-68
2022/05/05 02:48:24;;;;;;;5.30;4.77;;;14.10;99.90;;;;;;1039489;28;20457;-67
2022/05/05 02:48:54;;;;;;;7.10;5.20;;;14.10;99.90;;;;;;1039255;28;20039;-67
2022/05/05 02:49:27;;;;;;;7.10;5.47;;;14.10;99.90;;;;;;1035168;28;20416;-67
2022/05/05 02:49:57;;;;;;;5.10;4.50;;;14.10;99.90;;;;;;1041955;28;20103;-68
2022/05/05 02:50:28;;;;;;;5.77;4.83;;;14.10;99.90;;;;;;1039461;28;20027;-67
2022/05/05 02:50:59;;;;;;;5.73;5.00;;;14.10;99.90;;;;;;1039396;28;20037;-68
2022/05/05 02:51:29;;;;;;;5.87;5.07;;;14.10;99.90;;;;;;1039750;28;20025;-67
2022/05/05 02:52:00;;;;;;;5.57;4.93;;;14.10;99.90;;;;;;1043660;28;20075;-67
2022/05/05 02:52:30;;;;;;;6.00;4.77;;;14.00;99.90;;;;;;1043899;28;20142;-68
2022/05/05 02:54:46;;;;;;;5.63;4.77;;;14.00;99.90;;;;;;1043727;28;20493;-66